Houston, TX (77061)

7:22 AM CDT on August 17, 2017 (GMT -0500)
Clear Creek Estates | | Change Station

Elev 45 ft 29.60 °N, 95.28 °W | Updated 30 seconds ago

Scattered Clouds
Scattered Clouds
78.5 °F
Feels Like 82 °F
N
0.0
Wind Variable Wind from SE

Today
High -- | Low -- °F
--% Chance of Precip.
Yesterday
High -- | Low -- °F
Precip. -- in
Pressure 30.03 in
Visibility 10.0 miles
Clouds Scattered Clouds 25000 ft
Heat Index 82 °F
Dew Point 77 °F
Humidity 96%
Rainfall 0.00 in
Snow Depth Not available.
6:50 AM 7:59 PM
Waning Crescent, 23% visible
METAR KHOU 171153Z 18003KT 10SM SCT250 28/24 A3001 RMK AO2 SLP167 70001 T02780244 10294 20278 53007
Pressure 30.03 in
Visibility 10.0 miles
Clouds Scattered Clouds 25000 ft
Heat Index 82 °F
Dew Point 77 °F
Humidity 96%
Rainfall 0.00 in
Snow Depth Not available.
6:50 AM 7:59 PM
Waning Crescent, 23% visible
METAR KHOU 171153Z 18003KT 10SM SCT250 28/24 A3001 RMK AO2 SLP167 70001 T02780244 10294 20278 53007

Get Severe Weather Alerts

Thanks for signing up!

Be on the lookout for a verification email in your inbox.

You'll start receiving the daily forecast at 6 AM.

×

10-Day Weather Forecast

Almanac

Astronomy

Aug. 17, 2017 Rise Set
Actual Time
Civil Twilight
Nautical Twilight
Astronomical Twilight
Moon
Length of Visible Light
Length of Day
Tomorrow will be .
, % of the Moon is Illuminated

Today's Extremes

State Highs State Lows

Community

WunderPhotos

Category 6

Welcome to Category 6. This is the collective home for Weather Underground's featured writeups by Dr. Jeff Masters (right), Bob Henson (left), Chris Burt, and other regular contributors.

Nearby

Air Quality

  Air Quality AQ Index Pollutant
Not available.

Snow Depth

Station Depth Elevation

Earthquake Activity

City Distance Mag. Time & Date
Minimum magnitude displayed is 2.5.

Coastal Water Temperatures

Place Temperature

Stations

Nearby Weather Stations

Station Location Temp. Windchill Dew Point Humidity Wind Precip. Elev Updated Type
                   

Watches & Warnings

There are currently no watches in effect.